Time,TemperatureF,DewpointF,PressureIn,WindDirection,WindDirectionDegrees,WindSpeedMPH,WindSpeedGustMPH,Humidity,HourlyPrecipIn,Conditions,Clouds,dailyrainin,SoftwareType,DateUTC
2013-01-21 00:22:00,36.0,27.0,30.08,North,0,0.0,-999.0,69,-99.99,,,-99.99,,2013-01-21 05:22:00,
2013-01-21 00:34:00,36.0,27.0,30.08,North,0,0.0,-999.0,69,-99.99,,,-99.99,,2013-01-21 05:34:00,
2013-01-21 00:42:00,36.0,27.0,30.08,North,0,0.0,-999.0,69,-99.99,,,-99.99,,2013-01-21 05:42:00,
2013-01-21 00:52:00,36.0,27.0,30.08,North,0,0.0,-999.0,69,-99.99,,,-99.99,,2013-01-21 05:52:00,
2013-01-21 03:43:00,34.0,28.0,30.07,North,0,0.0,-999.0,80,-99.99,,,-99.99,,2013-01-21 08:43:00,
2013-01-21 03:53:00,34.0,28.0,30.07,North,0,0.0,-999.0,80,-99.99,,,-99.99,,2013-01-21 08:53:00,
2013-01-21 04:23:00,30.0,27.0,30.06,North,0,0.0,-999.0,86,-99.99,,,-99.99,,2013-01-21 09:23:00,
2013-01-21 04:33:00,30.0,27.0,30.06,North,0,0.0,-999.0,86,-99.99,,,-99.99,,2013-01-21 09:33:00,
2013-01-21 04:42:00,30.0,27.0,30.06,North,0,0.0,-999.0,86,-99.99,,,-99.99,,2013-01-21 09:42:00,
2013-01-21 04:53:00,30.0,27.0,30.06,North,0,0.0,-999.0,86,-99.99,,,-99.99,,2013-01-21 09:53:00,
2013-01-21 05:23:00,30.0,27.0,30.05,North,0,0.0,-999.0,86,-99.99,,,-99.99,,2013-01-21 10:23:00,
2013-01-21 05:33:00,30.0,27.0,30.05,North,0,0.0,-999.0,86,-99.99,,,-99.99,,2013-01-21 10:33:00,
2013-01-21 05:43:00,30.0,27.0,30.05,North,0,0.0,-999.0,86,-99.99,,,-99.99,,2013-01-21 10:43:00,
2013-01-21 05:52:00,30.0,27.0,30.05,North,0,0.0,-999.0,86,-99.99,,,-99.99,,2013-01-21 10:52:00,
2013-01-21 06:13:00,30.0,27.0,30.04,North,0,0.0,-999.0,86,-99.99,,,-99.99,,2013-01-21 11:13:00,
2013-01-21 06:23:00,30.0,27.0,30.04,North,0,0.0,-999.0,86,-99.99,,,-99.99,,2013-01-21 11:23:00,
2013-01-21 06:33:00,30.0,27.0,30.04,North,0,0.0,-999.0,86,-99.99,,,-99.99,,2013-01-21 11:33:00,
2013-01-21 06:43:00,30.0,27.0,30.04,North,0,0.0,-999.0,86,-99.99,,,-99.99,,2013-01-21 11:43:00,
2013-01-21 06:53:00,30.0,27.0,30.04,North,0,0.0,-999.0,86,-99.99,,,-99.99,,2013-01-21 11:53:00,
2013-01-21 07:22:00,28.0,27.0,30.04,North,0,0.0,-999.0,92,-99.99,,,-99.99,,2013-01-21 12:22:00,
2013-01-21 07:33:00,28.0,27.0,30.04,North,0,0.0,-999.0,92,-99.99,,,-99.99,,2013-01-21 12:33:00,
2013-01-21 07:43:00,28.0,27.0,30.04,North,0,0.0,-999.0,92,-99.99,,,-99.99,,2013-01-21 12:43:00,
2013-01-21 07:52:00,28.0,27.0,30.04,North,0,0.0,-999.0,92,-99.99,,,-99.99,,2013-01-21 12:52:00,
2013-01-21 08:13:00,28.0,27.0,30.05,North,0,0.0,-999.0,92,-99.99,,,-99.99,,2013-01-21 13:13:00,
2013-01-21 08:23:00,28.0,27.0,30.05,North,0,0.0,-999.0,92,-99.99,,,-99.99,,2013-01-21 13:23:00,
2013-01-21 08:33:00,28.0,27.0,30.05,North,0,0.0,-999.0,92,-99.99,,,-99.99,,2013-01-21 13:33:00,
2013-01-21 08:43:00,28.0,27.0,30.05,North,0,0.0,-999.0,92,-99.99,,,-99.99,,2013-01-21 13:43:00,
2013-01-21 08:53:00,28.0,27.0,30.05,North,0,0.0,-999.0,92,-99.99,,,-99.99,,2013-01-21 13:53:00,
2013-01-21 09:33:00,32.0,28.0,30.05,North,0,0.0,-999.0,86,-99.99,,,-99.99,,2013-01-21 14:33:00,
2013-01-21 09:43:00,32.0,28.0,30.05,North,0,0.0,-999.0,86,-99.99,,,-99.99,,2013-01-21 14:43:00,
2013-01-21 09:53:00,32.0,28.0,30.05,North,0,0.0,-999.0,86,-99.99,,,-99.99,,2013-01-21 14:53:00,
2013-01-21 10:13:00,36.0,30.0,30.07,North,0,0.0,-999.0,80,-99.99,,,-99.99,,2013-01-21 15:13:00,
2013-01-21 10:23:00,36.0,30.0,30.07,North,0,0.0,-999.0,80,-99.99,,,-99.99,,2013-01-21 15:23:00,
2013-01-21 10:33:00,36.0,30.0,30.07,North,0,0.0,-999.0,80,-99.99,,,-99.99,,2013-01-21 15:33:00,
2013-01-21 10:43:00,36.0,30.0,30.07,North,0,0.0,-999.0,80,-99.99,,,-99.99,,2013-01-21 15:43:00,
2013-01-21 10:53:00,36.0,30.0,30.07,North,0,0.0,-999.0,80,-99.99,,,-99.99,,2013-01-21 15:53:00,
2013-01-21 11:13:00,39.0,34.0,30.06,North,0,0.0,-999.0,80,-99.99,,,-99.99,,2013-01-21 16:13:00,
2013-01-21 11:23:00,39.0,34.0,30.06,North,0,0.0,-999.0,80,-99.99,,,-99.99,,2013-01-21 16:23:00,
2013-01-21 11:33:00,39.0,34.0,30.06,North,0,0.0,-999.0,80,-99.99,,,-99.99,,2013-01-21 16:33:00,
2013-01-21 11:43:00,39.0,34.0,30.06,North,0,0.0,-999.0,80,-99.99,,,-99.99,,2013-01-21 16:43:00,
2013-01-21 11:53:00,39.0,34.0,30.06,North,0,0.0,-999.0,80,-99.99,,,-99.99,,2013-01-21 16:53:00,
2013-01-21 12:13:00,45.0,36.0,30.04,North,0,0.0,-999.0,70,-99.99,,,-99.99,,2013-01-21 17:13:00,
2013-01-21 12:23:00,45.0,36.0,30.04,North,0,0.0,-999.0,70,-99.99,,,-99.99,,2013-01-21 17:23:00,
2013-01-21 12:33:00,45.0,36.0,30.04,North,0,0.0,-999.0,70,-99.99,,,-99.99,,2013-01-21 17:33:00,
2013-01-21 12:43:00,45.0,36.0,30.04,North,0,0.0,-999.0,70,-99.99,,,-99.99,,2013-01-21 17:43:00,
2013-01-21 12:53:00,45.0,36.0,30.04,North,0,0.0,-999.0,70,-99.99,,,-99.99,,2013-01-21 17:53:00,
2013-01-21 13:12:00,46.0,34.0,30.01,North,0,0.0,-999.0,61,-99.99,,,-99.99,,2013-01-21 18:12:00,
2013-01-21 13:23:00,46.0,34.0,30.01,North,0,0.0,-999.0,61,-99.99,,,-99.99,,2013-01-21 18:23:00,
2013-01-21 13:33:00,46.0,34.0,30.01,North,0,0.0,-999.0,61,-99.99,,,-99.99,,2013-01-21 18:33:00,
2013-01-21 13:43:00,46.0,34.0,30.01,North,0,0.0,-999.0,61,-99.99,,,-99.99,,2013-01-21 18:43:00,
2013-01-21 13:52:00,46.0,34.0,30.01,North,0,0.0,-999.0,61,-99.99,,,-99.99,,2013-01-21 18:52:00,
2013-01-21 15:12:00,46.0,30.0,30.00,NW,320,10.0,25.0,52,-99.99,,,-99.99,,2013-01-21 20:12:00,
2013-01-21 15:23:00,46.0,30.0,30.00,NW,320,10.0,25.0,52,-99.99,,,-99.99,,2013-01-21 20:23:00,
2013-01-21 15:33:00,46.0,30.0,30.00,NW,320,10.0,25.0,52,-99.99,,,-99.99,,2013-01-21 20:33:00,
2013-01-21 15:43:00,46.0,30.0,30.00,NW,320,10.0,25.0,52,-99.99,,,-99.99,,2013-01-21 20:43:00,
2013-01-21 15:53:00,46.0,30.0,30.00,NW,320,10.0,25.0,52,-99.99,,,-99.99,,2013-01-21 20:53:00,
2013-01-21 16:12:00,45.0,27.0,30.00,NW,320,5.0,-999.0,48,-99.99,,,-99.99,,2013-01-21 21:12:00,
2013-01-21 16:23:00,45.0,27.0,30.00,NW,320,5.0,-999.0,48,-99.99,,,-99.99,,2013-01-21 21:23:00,
2013-01-21 16:33:00,45.0,27.0,30.00,NW,320,5.0,-999.0,48,-99.99,,,-99.99,,2013-01-21 21:33:00,
2013-01-21 16:43:00,45.0,27.0,30.00,NW,320,5.0,-999.0,48,-99.99,,,-99.99,,2013-01-21 21:43:00,
2013-01-21 16:53:00,45.0,27.0,30.00,NW,320,5.0,-999.0,48,-99.99,,,-99.99,,2013-01-21 21:53:00,
2013-01-21 17:23:00,43.0,21.0,30.01,North,-99,7.0,-999.0,41,-99.99,,,-99.99,,2013-01-21 22:23:00,
2013-01-21 17:33:00,43.0,21.0,30.01,North,-99,7.0,-999.0,41,-99.99,,,-99.99,,2013-01-21 22:33:00,
2013-01-21 17:43:00,43.0,21.0,30.01,North,-99,7.0,-999.0,41,-99.99,,,-99.99,,2013-01-21 22:43:00,
2013-01-21 17:52:00,43.0,21.0,30.01,North,-99,7.0,-999.0,41,-99.99,,,-99.99,,2013-01-21 22:52:00,
2013-01-21 18:13:00,37.0,19.0,30.02,North,0,0.0,-999.0,47,-99.99,,,-99.99,,2013-01-21 23:13:00,
2013-01-21 18:23:00,37.0,19.0,30.02,North,0,0.0,-999.0,47,-99.99,,,-99.99,,2013-01-21 23:23:00,
2013-01-21 18:33:00,37.0,19.0,30.02,North,0,0.0,-999.0,47,-99.99,,,-99.99,,2013-01-21 23:33:00,
2013-01-21 18:42:00,37.0,19.0,30.02,North,0,0.0,-999.0,47,-99.99,,,-99.99,,2013-01-21 23:42:00,
2013-01-21 18:53:00,37.0,19.0,30.02,North,0,0.0,-999.0,47,-99.99,,,-99.99,,2013-01-21 23:53:00,
2013-01-21 20:12:00,34.0,19.0,30.02,North,-99,7.0,-999.0,55,-99.99,,,-99.99,,2013-01-22 01:12:00,
2013-01-21 20:23:00,34.0,19.0,30.02,North,-99,7.0,-999.0,55,-99.99,,,-99.99,,2013-01-22 01:23:00,
2013-01-21 20:33:00,34.0,19.0,30.02,North,-99,7.0,-999.0,55,-99.99,,,-99.99,,2013-01-22 01:33:00,
2013-01-21 20:43:00,34.0,19.0,30.02,North,-99,7.0,-999.0,55,-99.99,,,-99.99,,2013-01-22 01:43:00,
2013-01-21 20:52:00,34.0,19.0,30.02,North,-99,7.0,-999.0,55,-99.99,,,-99.99,,2013-01-22 01:52:00,
2013-01-21 21:23:00,34.0,18.0,30.02,West,280,6.0,-999.0,51,-99.99,,,-99.99,,2013-01-22 02:23:00,
2013-01-21 21:33:00,34.0,18.0,30.02,West,280,6.0,-999.0,51,-99.99,,,-99.99,,2013-01-22 02:33:00,
2013-01-21 21:43:00,34.0,18.0,30.02,West,280,6.0,-999.0,51,-99.99,,,-99.99,,2013-01-22 02:43:00,
2013-01-21 21:53:00,34.0,18.0,30.02,West,280,6.0,-999.0,51,-99.99,,,-99.99,,2013-01-22 02:53:00,
2013-01-21 22:52:00,30.0,18.0,30.02,North,0,0.0,-999.0,59,-99.99,,,-99.99,,2013-01-22 03:52:00,
2013-01-21 23:42:00,28.0,16.0,30.02,North,0,0.0,-999.0,58,-99.99,,,-99.99,,2013-01-22 04:42:00,
2013-01-21 23:52:00,28.0,16.0,30.02,North,0,0.0,-999.0,58,-99.99,,,-99.99,,2013-01-22 04:52:00,